Flight Track Log - Related Links

Times and Time Zones

All times are in EDT time to prevent confusion due to time zone crossing. See the UPS2020 flight status page for this flight to view local times or setup timezone preferences in your user account.


Time Position Orientation Groundspeed Altitude Reporting Facility
EDT Latitude Longitude Course Direction KTS MPH feet Rate Location/Type
Thu 03:32:49 PM 32.8712 -97.0307 182° South 166 191 2,800  Level FlightAware ADS-B
Thu 03:33:53 PM 32.8170 -97.0111 160° South 245 282 5,000 2,429 Climbing FlightAware ADS-B
Thu 03:34:13 PM 32.8070 -97.0066 160° South 247 284 6,200 3,429 Climbing FlightAware ADS-B
Thu 03:34:35 PM 32.7799 -96.9875 128° Southeast 263 303 7,400 3,512 Climbing FlightAware ADS-B
Thu 03:34:54 PM 32.7692 -96.9628 111° Southeast 274 315 8,600 2,923 Climbing FlightAware ADS-B
Thu 03:35:14 PM 32.7619 -96.9281 95° East 295 339 9,300 1,463 Climbing FlightAware ADS-B
Thu 03:35:35 PM 32.7634 -96.8933 86° East 316 364 9,600 769 Climbing FlightAware ADS-B
Thu 03:35:53 PM 32.7660 -96.8568 85° East 320 368 9,800 1,404 Climbing FlightAware ADS-B
Thu 03:38:43 PM 32.9350 -96.5652 53° Northeast 413 475 14,000 1,735 Climbing FlightAware ADS-B
Thu 03:39:24 PM 32.9462 -96.5475 53° Northeast 422 486 15,900 2,714 Climbing FlightAware ADS-B
Thu 03:40:07 PM 33.0292 -96.4156 53° Northeast 416 479 17,800 2,434 Climbing Memphis Center
Thu 03:41:10 PM 33.0956 -96.2950 57° Northeast 427 491 20,200 2,363 Climbing Memphis Center
Thu 03:45:32 PM 33.2914 -95.6232 70° East 478 550 30,600 2,287 Climbing FlightAware ADS-B
Thu 03:46:17 PM 33.3225 -95.5164 70° East 479 551 31,900 1,714 Climbing FlightAware ADS-B
Thu 03:47:17 PM 33.3673 -95.3617 70° East 477 549 33,600 1,533 Climbing FlightAware ADS-B
Thu 03:47:47 PM 33.3884 -95.2881 71° East 479 551 34,200 1,300 Climbing FlightAware ADS-B
Thu 03:48:17 PM 33.4115 -95.2074 71° East 477 549 34,900 686 Climbing FlightAware ADS-B
Thu 03:48:57 PM 33.4200 -95.1778 71° East 482 555 35,000 87 Climbing FlightAware ADS-B
Thu 03:49:26 PM 33.4565 -95.0500 71° East 480 552 35,000  Level FlightAware ADS-B
Thu 03:49:56 PM 33.4688 -95.0071 71° East 480 552 35,000  Level FlightAware ADS-B
Thu 03:50:27 PM 33.5041 -94.8820 71° East 480 552 35,000  Level FlightAware ADS-B
Thu 03:54:45 PM 33.6889 -94.2296 68° East 484 557 35,000  Level FlightAware ADS-B
Thu 03:55:17 PM 33.7191 -94.1538 62° Northeast 487 560 35,000  Level FlightAware ADS-B
Thu 03:55:56 PM 33.7651 -94.0619 58° Northeast 491 565 35,000  Level FlightAware ADS-B
Thu 03:56:33 PM 33.8079 -93.9778 59° Northeast 490 564 35,000  Level FlightAware ADS-B
Thu 03:57:22 PM 33.8634 -93.8660 60° Northeast 494 568 35,000  Level FlightAware ADS-B
Thu 03:58:26 PM 33.9410 -93.7085 60° Northeast 490 564 35,000  Level FlightAware ADS-B
Thu 03:59:10 PM 33.9926 -93.6039 59° Northeast 496 571 35,000  Level FlightAware ADS-B
Thu 03:59:46 PM 34.0345 -93.5190 59° Northeast 499 574 35,000  Level FlightAware ADS-B
Thu 04:00:44 PM 34.1029 -93.3795 60° Northeast 494 568 35,000  Level FlightAware ADS-B
Thu 04:01:27 PM 34.1534 -93.2757 60° Northeast 499 574 35,000  Level FlightAware ADS-B
Thu 04:02:06 PM 34.1969 -93.1861 60° Northeast 499 574 35,000  Level FlightAware ADS-B
Thu 04:02:49 PM 34.2452 -93.0865 60° Northeast 501 577 35,000  Level FlightAware ADS-B
Thu 04:03:48 PM 34.3092 -92.9543 60° Northeast 503 579 35,000  Level FlightAware ADS-B
Thu 04:04:32 PM 34.3637 -92.8412 60° Northeast 503 579 35,000  Level FlightAware ADS-B
Thu 04:05:13 PM 34.4164 -92.7313 60° Northeast 506 582 35,000  Level FlightAware ADS-B
Thu 04:06:15 PM 34.4849 -92.5882 60° Northeast 507 583 35,000  Level FlightAware ADS-B
Thu 04:08:51 PM 34.6735 -92.1973 59° Northeast 510 587 35,000  Level FlightAware ADS-B
Thu 04:10:01 PM 34.7840 -92.0424 45° Northeast 516 594 35,000  Level FlightAware ADS-B
Thu 04:12:10 PM 34.9866 -91.7861 47° Northeast 518 596 35,000  Level FlightAware ADS-B
Thu 04:13:36 PM 35.1395 -91.5885 47° Northeast 521 600 35,000  Level FlightAware ADS-B
Thu 04:14:14 PM 35.2003 -91.5097 47° Northeast 523 602 35,000  Level FlightAware ADS-B
Thu 04:15:14 PM 35.3023 -91.3774 47° Northeast 524 603 35,000  Level FlightAware ADS-B
Thu 04:15:58 PM 35.3742 -91.2833 47° Northeast 520 598 35,000  Level FlightAware ADS-B
Thu 04:16:38 PM 35.4365 -91.2018 47° Northeast 516 594 35,000  Level FlightAware ADS-B
Thu 04:17:38 PM 35.5365 -91.0705 47° Northeast 512 589 35,000  Level FlightAware ADS-B
Thu 04:18:18 PM 35.5995 -90.9875 47° Northeast 508 585 35,000  Level FlightAware ADS-B
Thu 04:18:57 PM 35.6608 -90.9067 47° Northeast 510 587 35,000  Level FlightAware ADS-B
Thu 04:19:35 PM 35.7242 -90.8228 47° Northeast 511 588 35,000  Level FlightAware ADS-B
Thu 04:20:17 PM 35.7700 -90.7620 47° Northeast 512 589 35,000  Level FlightAware ADS-B
Thu 04:21:31 PM 35.8936 -90.5972 47° Northeast 511 588 35,000  Level Memphis Center
Thu 04:22:34 PM 35.9903 -90.4681 47° Northeast 511 588 35,000  Level Memphis Center
Thu 04:23:36 PM 36.1061 -90.3125 47° Northeast 511 588 35,000  Level Memphis Center
Thu 04:24:38 PM 36.2019 -90.1833 47° Northeast 510 587 35,000  Level Memphis Center
Thu 04:25:40 PM 36.2972 -90.0542 48° Northeast 508 585 35,000  Level Memphis Center
Thu 04:26:42 PM 36.3933 -89.9236 48° Northeast 509 586 35,000  Level Memphis Center
Thu 04:27:44 PM 36.4892 -89.7928 48° Northeast 509 586 35,000  Level Memphis Center
Thu 04:28:46 PM 36.5856 -89.6608 48° Northeast 509 586 35,000  Level Memphis Center
Thu 04:29:48 PM 36.6817 -89.5283 48° Northeast 509 586 35,000  Level Memphis Center
Thu 04:30:50 PM 36.7775 -89.3961 48° Northeast 508 585 35,000  Level Memphis Center
Thu 04:31:53 PM 36.8917 -89.2375 48° Northeast 508 585 35,000  Level Memphis Center
Thu 04:37:17 PM 37.4026 -88.5187 49° Northeast 502 578 35,000  Level FlightAware ADS-B (LFOE / EVX)
Thu 04:42:44 PM 37.8907 -87.8166 49° Northeast 482 555 35,000  Level FlightAware ADS-B (LFOE / EVX)
Thu 04:43:26 PM 37.9516 -87.7272 50° Northeast 483 556 35,000  Level FlightAware ADS-B (LFOE / EVX)
Thu 04:43:56 PM 37.9905 -87.6661 52° Northeast 484 557 35,000  Level FlightAware ADS-B (LFOE / EVX)
Thu 04:44:27 PM 38.0378 -87.5910 51° Northeast 486 559 35,000  Level FlightAware ADS-B (LFOE / EVX)
Thu 04:44:57 PM 38.0782 -87.5270 51° Northeast 487 560 35,000  Level FlightAware ADS-B (LFOE / EVX)
Thu 04:45:27 PM 38.1221 -87.4578 51° Northeast 488 562 35,000  Level FlightAware ADS-B (LFOE / EVX)
Thu 04:46:05 PM 38.1741 -87.3759 51° Northeast 488 562 35,000  Level FlightAware ADS-B (LFOE / EVX)
Thu 04:46:53 PM 38.2425 -87.2676 51° Northeast 486 559 35,000  Level FlightAware ADS-B (LFOE / EVX)
Thu 04:47:33 PM 38.2985 -87.1789 51° Northeast 485 558 35,000  Level FlightAware ADS-B (LFOE / EVX)
Thu 04:48:05 PM 38.3416 -87.1103 52° Northeast 485 558 35,000  Level FlightAware ADS-B (LFOE / EVX)
Thu 04:49:16 PM 38.4431 -86.9484 52° Northeast 485 558 35,000  Level FlightAware ADS-B (LFOE / EVX)
Thu 04:50:31 PM 38.5474 -86.7811 52° Northeast 486 559 35,000  Level FlightAware ADS-B (LFOE / EVX)
Thu 04:51:06 PM 38.5883 -86.7151 52° Northeast 486 559 35,000  Level FlightAware ADS-B (LFOE / EVX)
Thu 04:53:19 PM 38.7749 -86.4130 52° Northeast 488 562 35,000  Level FlightAware ADS-B (LFOE / EVX)
Thu 04:54:47 PM 38.9037 -86.2027 52° Northeast 488 562 35,000  Level FlightAware ADS-B (LFOE / EVX)
Thu 04:56:14 PM 39.0200 -86.0120 52° Northeast 489 563 35,000  Level FlightAware ADS-B (LFOE / EVX)
Thu 04:56:47 PM 39.0709 -85.9279 52° Northeast 488 562 35,000  Level FlightAware ADS-B (LFOE / EVX)
Thu 04:58:06 PM 39.1765 -85.7527 52° Northeast 487 560 35,000  Level FlightAware ADS-B (LFOE / EVX)
Thu 05:00:19 PM 39.3642 -85.4436 49° Northeast 487 560 35,000  Level FlightAware ADS-B (LFOE / EVX)
Thu 05:01:03 PM 39.4214 -85.3594 49° Northeast 486 559 35,000  Level Indianapolis Center
Thu 05:02:05 PM 39.5094 -85.2289 49° Northeast 486 559 35,000  Level Indianapolis Center
Thu 05:03:07 PM 39.5972 -85.0969 49° Northeast 486 559 35,000  Level Indianapolis Center
Thu 05:04:09 PM 39.6850 -84.9647 49° Northeast 486 559 35,000  Level Indianapolis Center
Thu 05:05:11 PM 39.7811 -84.8189 49° Northeast 485 558 35,000  Level Indianapolis Center
Thu 05:06:11 PM 39.8769 -84.6736 50° Northeast 479 551 35,000  Level FlightAware ADS-B
Thu 05:12:05 PM 40.3780 -83.8877 53° Northeast 487 560 35,000  Level FlightAware ADS-B
Thu 05:13:21 PM 40.4885 -83.6964 53° Northeast 489 563 35,000  Level FlightAware ADS-B
Thu 05:14:07 PM 40.5378 -83.6117 53° Northeast 487 560 35,000  Level Cleveland Center
Thu 05:15:10 PM 40.6358 -83.4417 53° Northeast 486 559 35,000  Level Cleveland Center
Thu 05:16:11 PM 40.7169 -83.3003 53° Northeast 485 558 35,000  Level Cleveland Center
Thu 05:17:13 PM 40.7975 -83.1594 53° Northeast 483 556 35,000  Level Cleveland Center
Thu 05:18:15 PM 40.8772 -83.0194 53° Northeast 482 555 35,000  Level Cleveland Center
Thu 05:19:17 PM 40.9583 -82.8758 53° Northeast 482 555 35,000  Level Cleveland Center
Thu 05:20:19 PM 41.0392 -82.7328 53° Northeast 482 555 35,000  Level Cleveland Center
Thu 05:21:22 PM 41.1328 -82.5656 53° Northeast 481 554 35,000  Level Cleveland Center
Thu 05:22:24 PM 41.2131 -82.4217 53° Northeast 480 552 35,000  Level Cleveland Center
Thu 05:23:26 PM 41.2928 -82.2781 54° Northeast 479 551 35,000  Level Cleveland Center
Thu 05:24:28 PM 41.3694 -82.1150 58° Northeast 480 552 35,000  Level Cleveland Center
Thu 05:29:37 PM 41.6163 -81.2546 70° East 478 550 35,000  Level FlightAware ADS-B (EPLB / LUZ)
Thu 05:30:51 PM 41.6732 -81.0506 69° East 476 548 35,000  Level FlightAware ADS-B (EPLB / LUZ)
Thu 05:32:23 PM 41.7437 -80.7956 70° East 477 549 35,000  Level FlightAware ADS-B (EPLB / LUZ)
Thu 05:33:13 PM 41.7815 -80.6578 70° East 477 549 35,000  Level FlightAware ADS-B (EPLB / LUZ)
Thu 05:35:12 PM 41.8718 -80.3252 70° East 479 551 35,000  Level FlightAware ADS-B (CYYZ)
Thu 05:35:43 PM 41.8906 -80.2554 70° East 479 551 35,000  Level FlightAware ADS-B (CYYZ)
Thu 05:36:19 PM 41.9203 -80.1416 72° East 477 549 35,000  Level FlightAware ADS-B (CYYZ)
Thu 05:36:58 PM 41.9417 -80.0279 76° East 476 548 35,000  Level FlightAware ADS-B (CYYZ)
Thu 05:37:29 PM 41.9574 -79.9389 76° East 475 547 35,000  Level FlightAware ADS-B (CYYZ)
Thu 05:37:59 PM 41.9726 -79.8531 76° East 475 547 35,000  Level FlightAware ADS-B (CYYZ)
Thu 05:38:12 PM 41.9785 -79.8198 77° East 476 548 35,000  Level FlightAware ADS-B (EPLB / LUZ)
Thu 05:38:29 PM 41.9880 -79.7665 76° East 477 549 35,000  Level FlightAware ADS-B (CYYZ)
Thu 05:38:51 PM 41.9919 -79.7447 77° East 477 549 35,000  Level FlightAware ADS-B (EPLB / LUZ)
Thu 05:38:59 PM 42.0032 -79.6816 76° East 477 549 35,000  Level FlightAware ADS-B (CYYZ)
Thu 05:39:28 PM 42.0183 -79.5962 76° East 475 547 35,000  Level FlightAware ADS-B (CYYZ)
Thu 05:39:44 PM 42.0263 -79.5505 77° East 476 548 35,000  Level FlightAware ADS-B (EPLB / LUZ)
Thu 05:39:58 PM 42.0335 -79.5099 76° East 475 547 35,000  Level FlightAware ADS-B (CYYZ)
Thu 05:40:29 PM 42.0486 -79.4227 76° East 476 548 35,000  Level FlightAware ADS-B (CYYZ)
Thu 05:40:35 PM 42.0474 -79.4297 77° East 476 548 35,000  Level FlightAware ADS-B (EPLB / LUZ)
Thu 05:40:59 PM 42.0638 -79.3358 76° East 476 548 35,000  Level FlightAware ADS-B (CYYZ)
Thu 05:41:14 PM 42.0716 -79.2901 77° East 476 548 35,000  Level FlightAware ADS-B (EPLB / LUZ)
Thu 05:41:28 PM 42.0773 -79.2574 76° East 476 548 35,000  Level FlightAware ADS-B (CYYZ)
Thu 05:41:45 PM 42.0866 -79.2036 77° East 475 547 35,000  Level FlightAware ADS-B (EPLB / LUZ)
Thu 05:41:58 PM 42.0935 -79.1635 76° East 475 547 35,000  Level FlightAware ADS-B (CYYZ)
Thu 05:42:29 PM 42.1085 -79.0770 76° East 474 545 35,000  Level FlightAware ADS-B (CYYZ)
Thu 05:42:59 PM 42.1231 -78.9913 77° East 473 544 35,000  Level FlightAware ADS-B (CYYZ)
Thu 05:43:02 PM 42.1235 -78.9884 77° East 474 545 35,000  Level FlightAware ADS-B (EPLB / LUZ)
Thu 05:43:29 PM 42.1377 -78.9051 77° East 473 544 35,000  Level FlightAware ADS-B (CYYZ)
Thu 05:43:58 PM 42.1511 -78.8267 77° East 471 542 35,000  Level FlightAware ADS-B (CYYZ)
Thu 05:44:28 PM 42.1666 -78.7346 77° East 470 541 35,000  Level FlightAware ADS-B (CYYZ)
Thu 05:44:58 PM 42.1811 -78.6476 77° East 473 544 35,000  Level FlightAware ADS-B (CYYZ)
Thu 05:45:29 PM 42.1949 -78.5655 77° East 477 549 35,000  Level FlightAware ADS-B (CYYZ)
Thu 05:45:58 PM 42.2098 -78.4749 77° East 476 548 35,000  Level FlightAware ADS-B (CYYZ)
Thu 05:46:28 PM 42.2240 -78.3888 77° East 474 545 35,000  Level FlightAware ADS-B (CYYZ)
Thu 05:46:59 PM 42.2384 -78.3015 77° East 472 543 35,000  Level FlightAware ADS-B (CYYZ)
Thu 05:47:28 PM 42.2524 -78.2162 77° East 470 541 35,000  Level FlightAware ADS-B (CYYZ)
Thu 05:47:56 PM 42.2650 -78.1390 77° East 471 542 35,000  Level FlightAware ADS-B
Thu 05:47:58 PM 42.2659 -78.1334 77° East 470 541 35,000  Level FlightAware ADS-B (CYYZ)
Thu 05:48:27 PM 42.2790 -78.0490 77° East 471 542 35,000  Level FlightAware ADS-B
Thu 05:48:29 PM 42.2788 -78.0531 77° East 470 541 35,000  Level FlightAware ADS-B (CYYZ)
Thu 05:48:59 PM 42.2940 -77.9579 77° East 471 542 35,000  Level FlightAware ADS-B (CYYZ)
Thu 05:49:03 PM 42.2960 -77.9450 77° East 472 543 35,000  Level FlightAware ADS-B
Thu 05:49:29 PM 42.3074 -77.8736 77° East 471 542 35,000  Level FlightAware ADS-B (CYYZ)
Thu 05:49:39 PM 42.3130 -77.8420 77° East 473 544 35,000  Level FlightAware ADS-B
Thu 05:49:58 PM 42.3214 -77.7858 77° East 473 544 35,000  Level FlightAware ADS-B (CYYZ)
Thu 05:50:16 PM 42.3290 -77.7370 77° East 475 547 35,000  Level FlightAware ADS-B
Thu 05:50:29 PM 42.3350 -77.7002 77° East 474 545 35,000  Level FlightAware ADS-B (CYYZ)
Thu 05:50:51 PM 42.3460 -77.6330 77° East 476 548 35,000  Level FlightAware ADS-B
Thu 05:50:57 PM 42.3396 -77.6712 77° East 475 547 35,000  Level FlightAware ADS-B (CYYZ)
Thu 05:51:21 PM 42.3590 -77.5480 77° East 477 549 35,000  Level FlightAware ADS-B
Thu 05:51:25 PM 42.3554 -77.5711 78° East 476 548 35,000  Level FlightAware ADS-B (CYYZ)
Thu 05:51:58 PM 42.3760 -77.4400 78° East 477 549 35,000  Level FlightAware ADS-B
Thu 05:51:59 PM 42.3653 -77.5081 78° East 476 548 35,000  Level FlightAware ADS-B (CYYZ)
Thu 05:52:28 PM 42.3890 -77.3530 78° East 477 549 35,000  Level FlightAware ADS-B
Thu 05:52:57 PM 42.4030 -77.2680 78° East 475 547 35,000  Level FlightAware ADS-B
Thu 05:53:27 PM 42.4160 -77.1810 78° East 474 545 35,000  Level FlightAware ADS-B
Thu 05:53:57 PM 42.4290 -77.0950 78° East 473 544 35,000  Level FlightAware ADS-B
Thu 05:54:09 PM 42.4333 -77.0670 78° East 472 543 35,000  Level FlightAware ADS-B (CYYZ)
Thu 05:54:33 PM 42.4440 -76.9900 81° East 475 547 35,000  Level FlightAware ADS-B
Thu 05:54:59 PM 42.4521 -76.9147 81° East 479 551 35,000  Level FlightAware ADS-B (CYYZ)
Thu 05:55:03 PM 42.4530 -76.9020 81° East 483 556 35,000  Level FlightAware ADS-B
Thu 05:55:29 PM 42.4617 -76.8236 81° East 488 562 35,000  Level FlightAware ADS-B (CYYZ)
Thu 05:55:34 PM 42.4630 -76.8090 81° East 491 565 35,000  Level FlightAware ADS-B
Thu 05:55:59 PM 42.4712 -76.7339 81° East 494 568 35,000  Level FlightAware ADS-B (CYYZ)
Thu 05:56:09 PM 42.4750 -76.7010 81° East 496 571 35,000  Level FlightAware ADS-B
Thu 05:56:28 PM 42.4812 -76.6423 81° East 496 571 35,000  Level FlightAware ADS-B (CYYZ)
Thu 05:56:39 PM 42.4850 -76.6100 81° East 496 571 35,000  Level FlightAware ADS-B
Thu 05:56:59 PM 42.4902 -76.5567 81° East 493 567 35,000  Level FlightAware ADS-B (CYYZ)
Thu 05:57:09 PM 42.4940 -76.5170 81° East 495 570 35,000  Level FlightAware ADS-B
Thu 05:57:29 PM 42.5003 -76.4600 81° East 492 566 35,000  Level FlightAware ADS-B (CYYZ)
Thu 05:57:46 PM 42.5060 -76.4070 81° East 492 566 35,000  Level FlightAware ADS-B
Thu 05:57:58 PM 42.5099 -76.3693 81° East 491 565 35,000  Level FlightAware ADS-B (CYYZ)
Thu 05:58:16 PM 42.5150 -76.3170 81° East 492 566 35,000  Level FlightAware ADS-B
Thu 05:58:29 PM 42.5191 -76.2806 82° East 490 564 35,000  Level FlightAware ADS-B (CYYZ)
Thu 05:58:46 PM 42.5240 -76.2290 82° East 490 564 35,000  Level FlightAware ADS-B
Thu 05:58:59 PM 42.5290 -76.1844 82° East 489 563 35,000  Level FlightAware ADS-B (CYYZ)
Thu 05:59:21 PM 42.5360 -76.1150 82° East 492 566 35,000  Level FlightAware ADS-B
Thu 05:59:28 PM 42.5381 -76.0939 82° East 492 566 35,000  Level FlightAware ADS-B (CYYZ)
Thu 05:59:51 PM 42.5450 -76.0240 82° East 495 570 35,000  Level FlightAware ADS-B
Thu 05:59:59 PM 42.5471 -76.0039 82° East 494 568 35,000  Level FlightAware ADS-B (CYYZ)
Thu 06:00:27 PM 42.5560 -75.9160 82° East 496 571 35,000  Level FlightAware ADS-B
Thu 06:00:28 PM 42.5562 -75.9130 82° East 495 570 35,000  Level FlightAware ADS-B (CYYZ)
Thu 06:00:58 PM 42.5621 -75.8549 82° East 495 570 35,000  Level FlightAware ADS-B (CYYZ)
Thu 06:01:03 PM 42.5670 -75.8040 82° East 496 571 35,000  Level FlightAware ADS-B
Thu 06:01:28 PM 42.5729 -75.7453 82° East 494 568 35,000  Level FlightAware ADS-B (CYYZ)
Thu 06:01:33 PM 42.5760 -75.7110 82° East 495 570 35,000  Level FlightAware ADS-B
Thu 06:01:58 PM 42.5813 -75.6598 82° East 494 568 35,000  Level FlightAware ADS-B (CYYZ)
Thu 06:02:04 PM 42.5850 -75.6180 82° East 495 570 35,000  Level FlightAware ADS-B
Thu 06:02:28 PM 42.5919 -75.5507 82° East 494 568 35,000  Level FlightAware ADS-B (CYYZ)
Thu 06:02:40 PM 42.5960 -75.5110 82° East 495 570 35,000  Level FlightAware ADS-B
Thu 06:03:09 PM 42.6050 -75.4160 82° East 495 570 35,000  Level FlightAware ADS-B
Thu 06:03:45 PM 42.6150 -75.3080 82° East 496 571 35,000  Level FlightAware ADS-B
Thu 06:04:21 PM 42.6250 -75.2000 82° East 495 570 35,000  Level FlightAware ADS-B
Thu 06:04:51 PM 42.6340 -75.1040 82° East 496 571 35,000  Level FlightAware ADS-B
Thu 06:05:21 PM 42.6430 -75.0120 82° East 494 568 35,000  Level FlightAware ADS-B
Thu 06:05:53 PM 42.6489 -74.9442 82° East 493 567 35,000  Level Cleveland Center
Thu 06:07:18 PM 42.6728 -74.6906 83° East 495 570 35,000  Level Boston Center
Thu 06:08:19 PM 42.6889 -74.5072 83° East 494 568 35,000  Level Boston Center
Thu 06:09:21 PM 42.7078 -74.2869 83° East 494 568 35,000  Level Boston Center
Thu 06:10:22 PM 42.7231 -74.1039 83° East 493 567 35,000 -341 Level Boston Center
Thu 06:11:24 PM 42.7367 -73.9267 84° East 491 565 34,300 -1,043 Descending Boston Center
Thu 06:16:30 PM 42.6546 -73.0088 99° East 499 574 28,600 -1,245 Descending FlightAware ADS-B
Thu 06:17:40 PM 42.6253 -72.7472 99° East 474 545 26,500 -1,475 Descending FlightAware ADS-B
Thu 06:18:28 PM 42.6090 -72.6033 99° East 468 539 25,700 -1,750 Descending FlightAware ADS-B
Thu 06:19:40 PM 42.5850 -72.3972 99° East 456 525 23,000 -2,481 Descending FlightAware ADS-B
Thu 06:20:12 PM 42.5745 -72.3072 99° East 447 514 21,400 -2,923 Descending FlightAware ADS-B (KASH)
Thu 06:20:58 PM 42.5597 -72.1804 99° East 437 503 19,200 -2,883 Descending FlightAware ADS-B (KASH)
Thu 06:21:29 PM 42.5499 -72.0980 99° East 427 491 17,700 -2,951 Descending FlightAware ADS-B (KASH)
Thu 06:21:59 PM 42.5409 -72.0206 97° East 418 481 16,200 -2,960 Descending FlightAware ADS-B (KASH)
Thu 06:22:44 PM 42.5304 -71.9044 97° East 410 472 14,000 -2,795 Descending FlightAware ADS-B (KASH)
Thu 06:23:27 PM 42.5209 -71.7978 97° East 398 458 12,100 -2,630 Descending FlightAware ADS-B (KAPG)
Thu 06:23:57 PM 42.5141 -71.7239 97° East 380 437 10,800 -1,742 Descending FlightAware ADS-B (KASH)
Thu 06:24:29 PM 42.5075 -71.6526 97° East 359 413 10,300 -581 Descending FlightAware ADS-B (KAPG)
Thu 06:24:59 PM 42.5010 -71.5861 96° East 340 391 10,200 -320 Descending FlightAware ADS-B (KASH)
Thu 06:25:44 PM 42.4927 -71.4973 96° East 300 345 9,900 -600 Descending FlightAware ADS-B (KASH)
Thu 06:25:59 PM 42.4899 -71.4695 96° East 296 341 9,600 -1,355 Descending FlightAware ADS-B (KASH)
Thu 06:26:15 PM 42.4870 -71.4400 97° East 294 338 9,200 -1,435 Descending FlightAware ADS-B (KASH)
Thu 06:26:45 PM 42.4823 -71.3863 97° East 288 331 8,500 -1,347 Descending FlightAware ADS-B (KASH)
Thu 06:27:04 PM 42.4792 -71.3533 97° East 285 328 8,100 -1,395 Descending FlightAware ADS-B
Thu 06:27:28 PM 42.4752 -71.3102 97° East 280 322 7,500 -1,571 Descending FlightAware ADS-B (KAPG)
Thu 06:27:46 PM 42.4722 -71.2792 98° East 276 318 7,000 -1,565 Descending FlightAware ADS-B (KASH)
Thu 06:28:14 PM 42.4673 -71.2313 101° East 270 311 6,300 -1,395 Descending FlightAware ADS-B (KASH)
Thu 06:28:29 PM 42.4634 -71.2067 101° East 265 305 6,000 -1,313 Descending FlightAware ADS-B (KASH)
Thu 06:28:46 PM 42.4589 -71.1804 102° East 261 300 5,600 -894 Descending FlightAware ADS-B (KASH)
Thu 06:29:16 PM 42.4506 -71.1340 102° East 251 289 5,300 -300 Descending FlightAware ADS-B (KASH)
Thu 06:29:46 PM 42.4423 -71.0873 101° East 253 291 5,300 -82 Level FlightAware ADS-B (KASH)
Thu 06:30:29 PM 42.4306 -71.0211 106° East 254 292 5,200  Descending FlightAware ADS-B (KAPG)
Thu 06:30:57 PM 42.4096 -70.9923 162° South 219 252 5,300 115 Climbing FlightAware ADS-B (KASH)
Thu 06:31:21 PM 42.3862 -70.9848 167° South 218 251 5,300  Level FlightAware ADS-B (KAPG)
Thu 06:31:59 PM 42.3492 -70.9728 167° South 214 246 5,300 -226 Level FlightAware ADS-B (KASH)
Thu 06:32:14 PM 42.3342 -70.9679 166° South 216 249 5,100 -909 Descending FlightAware ADS-B (KASH)
Thu 06:32:32 PM 42.3171 -70.9628 168° South 215 247 4,800 -1,000 Descending FlightAware ADS-B (KASH)
Thu 06:32:50 PM 42.2991 -70.9578 168° South 213 245 4,500 -1,077 Descending FlightAware ADS-B (KASH)
Thu 06:33:11 PM 42.2793 -70.9523 169° South 211 243 4,100 -1,091 Descending FlightAware ADS-B (KASH)
Thu 06:33:23 PM 42.2673 -70.9492 170° South 211 243 3,900 -938 Descending FlightAware ADS-B (KASH)
Thu 06:33:43 PM 42.2485 -70.9518 200° South 209 241 3,600 -1,021 Descending FlightAware ADS-B (KASH)
Thu 06:34:10 PM 42.2471 -70.9525 200° South 211 243 3,100 -955 Descending FlightAware ADS-B (KOWD)
Thu 06:34:27 PM 42.2078 -70.9716 201° Southwest 201 231 2,900 -857 Descending FlightAware ADS-B (KOWD)
Thu 06:34:52 PM 42.1871 -70.9819 198° South 198 228 2,500 -800 Descending FlightAware ADS-B (KOWD)
Thu 06:35:12 PM 42.1708 -70.9891 208° Southwest 195 224 2,300 -400 Descending FlightAware ADS-B (KOWD)
Thu 06:35:22 PM 42.1624 -70.9978 232° Southwest 198 228 2,300  Level FlightAware ADS-B (KOWD)
Thu 06:35:43 PM 42.1583 -71.0181 282° West 197 227 2,300 -146 Level FlightAware ADS-B (KOWD)
Thu 06:36:03 PM 42.1649 -71.0439 292° West 199 229 2,200  Descending FlightAware ADS-B (KOWD)
Thu 06:36:17 PM 42.1714 -71.0606 321° Northwest 197 227 2,300 214 Climbing FlightAware ADS-B (KOWD)
Thu 06:36:31 PM 42.1756 -71.0656 343° North 191 220 2,300  Level FlightAware ADS-B (KOWD)
Thu 06:36:43 PM 42.1919 -71.0714 352° North 189 217 2,300  Level FlightAware ADS-B (KOWD)
Thu 06:36:58 PM 42.2049 -71.0742 350° North 188 216 2,300 -316 Level FlightAware ADS-B (KOWD)
Thu 06:37:21 PM 42.2247 -71.0739 20° North 184 212 2,100 -750 Descending FlightAware ADS-B (KOWD)
Thu 06:37:38 PM 42.2380 -71.0670 20° North 184 212 1,800 -111 Descending FlightAware ADS-B (KOWD)
Thu 06:38:15 PM 42.2667 -71.0500 20° North 165 190 2,000 -273 Climbing KA90
Thu 06:39:06 PM 42.2964 -71.0397 14° North 159 183 1,400 -696 Descending Boston Center
Thu 06:40:07 PM 42.3300 -71.0231 20° North 130 150 700 -488 Descending Boston Center
Thu 06:41:09 PM 42.3567 -71.0089 21° North 122 140 400 -290 Descending Boston Center
Thu 06:43:00 PM 42.3500 -71.0000 331° Northwest  Level FlightAware Approximate

Login

Don't have an account? Register now (free) for customized features, flight alerts, and more!